createdAt,value
2022-08-18T00:01:05.597Z,98658.75
2022-08-18T00:03:56.966Z,98653.59
2022-08-18T00:06:19.729Z,98642.94
2022-08-18T00:08:46.447Z,98644.53
2022-08-18T00:11:13.183Z,98638.97
2022-08-18T00:13:39.759Z,98641.28
2022-08-18T00:16:07.862Z,98645.16
2022-08-18T00:18:34.450Z,98641.19
2022-08-18T00:21:01.052Z,98640.41
2022-08-18T00:23:27.643Z,98640.78
2022-08-18T00:25:55.093Z,98640.72
2022-08-18T00:28:23.778Z,98636.81
2022-08-18T00:30:53.929Z,98643.84
2022-08-18T00:33:22.237Z,98644.25
2022-08-18T00:35:49.167Z,98638.34
2022-08-18T00:38:23.304Z,98638.34
2022-08-18T00:40:54.925Z,98630.47
2022-08-18T00:43:26.814Z,98639.88
2022-08-18T00:45:53.638Z,98635.94
2022-08-18T00:48:20.226Z,98635.09
2022-08-18T00:50:55.423Z,98630.78
2022-08-18T00:53:27.295Z,98639.44
2022-08-18T00:55:56.583Z,98648.78
2022-08-18T00:58:28.222Z,98648.78
2022-08-18T01:00:54.946Z,98664.47
2022-08-18T01:03:24.722Z,98653.00
2022-08-18T01:05:57.659Z,98654.16
2022-08-18T01:08:28.845Z,98661.94
2022-08-18T01:10:57.692Z,98650.53
2022-08-18T01:13:27.501Z,98656.03
2022-08-18T01:15:54.141Z,98664.25
2022-08-18T01:18:21.495Z,98661.47
2022-08-18T01:20:56.208Z,98661.44
2022-08-18T01:23:24.475Z,98663.38
2022-08-18T01:25:53.227Z,98654.22
2022-08-18T01:28:19.789Z,98655.78
2022-08-18T01:30:49.265Z,98651.41
2022-08-18T01:33:16.955Z,98650.22
2022-08-18T01:35:47.187Z,98654.06
2022-08-18T01:38:14.028Z,98665.78
2022-08-18T01:41:24.657Z,98662.25
2022-08-18T01:43:28.514Z,98651.69
2022-08-18T01:45:55.046Z,98657.19
2022-08-18T01:48:21.625Z,98650.53
2022-08-18T01:50:48.131Z,98664.31
2022-08-18T01:53:15.141Z,98658.81
2022-08-18T01:55:43.844Z,98647.06
2022-08-18T01:58:10.499Z,98644.72
2022-08-18T02:00:37.732Z,98651.78
2022-08-18T02:03:07.404Z,98653.34
2022-08-18T02:05:39.463Z,98651.78
2022-08-18T02:08:07.409Z,98661.97
2022-08-18T02:10:34.613Z,98660.78
2022-08-18T02:13:03.215Z,98666.56
2022-08-18T02:15:29.797Z,98657.19
2022-08-18T02:17:56.420Z,98662.25
2022-08-18T02:20:23.034Z,98655.59
2022-08-18T02:22:50.139Z,98665.84
2022-08-18T02:25:18.234Z,98656.06
2022-08-18T02:27:45.116Z,98657.69
2022-08-18T02:30:16.049Z,98659.25
2022-08-18T02:32:42.939Z,98662.06
2022-08-18T02:35:11.771Z,98659.31
2022-08-18T02:37:40.202Z,98660.06
2022-08-18T02:40:10.751Z,98658.97
2022-08-18T02:42:41.268Z,98655.81
2022-08-18T02:45:08.834Z,98665.72
2022-08-18T02:47:37.840Z,98667.28
2022-08-18T02:50:05.312Z,98657.09
2022-08-18T02:52:31.964Z,98655.94
2022-08-18T02:54:58.739Z,98652.44
2022-08-18T02:57:25.319Z,98650.13
2022-08-18T02:59:51.974Z,98655.22
2022-08-18T03:02:18.571Z,98660.72
2022-08-18T03:04:46.558Z,98666.59
2022-08-18T03:07:13.727Z,98649.31
2022-08-18T03:09:40.521Z,98648.09
2022-08-18T03:12:07.733Z,98634.00
2022-08-18T03:14:34.392Z,98638.25
2022-08-18T03:17:00.955Z,98636.31
2022-08-18T03:19:29.507Z,98642.09
2022-08-18T03:21:58.628Z,98638.56
2022-08-18T03:24:28.879Z,98647.19
2022-08-18T03:26:56.598Z,98647.56
2022-08-18T03:29:27.949Z,98649.50
2022-08-18T03:31:58.543Z,98651.09
2022-08-18T03:34:25.202Z,98655.03
2022-08-18T03:36:52.041Z,98651.47
2022-08-18T03:39:20.878Z,98649.53
2022-08-18T03:42:00.030Z,98638.56
2022-08-18T03:44:28.958Z,98642.09
2022-08-18T03:46:55.863Z,98635.44
2022-08-18T03:49:22.423Z,98651.16
2022-08-18T03:51:49.026Z,98655.88
2022-08-18T03:54:17.547Z,98661.72
2022-08-18T03:56:47.559Z,98657.75
2022-08-18T03:59:16.900Z,98665.63
2022-08-18T04:01:45.357Z,98661.31
2022-08-18T04:04:14.409Z,98668.38
2022-08-18T04:06:42.955Z,98670.31
2022-08-18T04:09:13.791Z,98664.03
2022-08-18T04:11:42.035Z,98667.63
2022-08-18T04:14:11.681Z,98671.53
2022-08-18T04:16:38.867Z,98672.69
2022-08-18T04:19:06.550Z,98666.84
2022-08-18T04:21:36.587Z,98680.22
2022-08-18T04:24:04.774Z,98675.97
2022-08-18T04:26:31.929Z,98670.84
2022-08-18T04:28:58.677Z,98667.75
2022-08-18T04:31:26.659Z,98673.28
2022-08-18T04:33:53.243Z,98663.09
2022-08-18T04:36:20.610Z,98662.69
2022-08-18T04:38:47.438Z,98665.13
2022-08-18T04:41:14.431Z,98658.09
2022-08-18T04:43:41.604Z,98663.25
2022-08-18T04:46:09.363Z,98660.91
2022-08-18T04:48:39.751Z,98670.75
2022-08-18T04:51:08.616Z,98669.97
2022-08-18T04:53:36.319Z,98659.41
2022-08-18T04:56:03.204Z,98667.69
2022-08-18T04:58:29.787Z,98673.59
2022-08-18T05:00:58.904Z,98670.88
2022-08-18T05:03:25.763Z,98673.69
2022-08-18T05:05:54.426Z,98674.47
2022-08-18T05:08:21.299Z,98667.09
2022-08-18T05:10:47.986Z,98670.63
2022-08-18T05:13:14.556Z,98676.19
2022-08-18T05:16:06.905Z,98677.00
2022-08-18T05:18:27.664Z,98664.50
2022-08-18T05:20:56.415Z,98669.63
2022-08-18T05:23:24.172Z,98665.38
2022-08-18T05:25:57.555Z,98673.31
2022-08-18T05:28:24.122Z,98674.22
2022-08-18T05:30:50.712Z,98669.19
2022-08-18T05:33:17.306Z,98664.97
2022-08-18T05:35:47.140Z,98677.59
2022-08-18T05:38:30.737Z,98683.53
2022-08-18T05:41:14.122Z,98678.53
2022-08-18T05:43:51.450Z,98684.84
2022-08-18T05:46:21.947Z,98684.47
2022-08-18T05:48:48.834Z,98687.66
2022-08-18T05:51:18.830Z,98687.28
2022-08-18T05:53:46.992Z,98681.44
2022-08-18T05:56:13.925Z,98688.16
2022-08-18T05:58:45.760Z,98680.34
2022-08-18T06:01:16.878Z,98682.75
2022-08-18T06:03:48.874Z,98690.25
2022-08-18T06:06:19.339Z,98690.66
2022-08-18T06:08:52.259Z,98685.56
2022-08-18T06:11:22.761Z,98690.31
2022-08-18T06:13:49.892Z,98692.28
2022-08-18T06:16:24.778Z,98694.66
2022-08-18T06:18:59.042Z,98702.97
2022-08-18T06:21:39.128Z,98699.84
2022-08-18T06:24:16.444Z,98699.06
2022-08-18T06:26:50.263Z,98701.84
2022-08-18T06:29:32.528Z,98697.91
2022-08-18T06:32:10.216Z,98697.91
2022-08-18T06:34:47.755Z,98701.84
2022-08-18T06:37:23.668Z,98710.94
2022-08-18T06:39:52.331Z,98714.47
2022-08-18T06:42:20.652Z,98716.06
2022-08-18T06:44:50.609Z,98716.84
2022-08-18T06:47:27.689Z,98721.56
2022-08-18T06:50:02.686Z,98723.94
2022-08-18T06:52:31.446Z,98724.34
2022-08-18T06:55:01.884Z,98717.66
2022-08-18T06:57:31.387Z,98714.09
2022-08-18T07:00:01.172Z,98708.19
2022-08-18T07:02:40.092Z,98709.72
2022-08-18T07:05:15.410Z,98717.22
2022-08-18T07:07:42.773Z,98710.91
2022-08-18T07:10:32.330Z,98712.84
2022-08-18T07:13:24.799Z,98715.56
2022-08-18T07:15:51.856Z,98710.03
2022-08-18T07:18:24.953Z,98705.69
2022-08-18T07:20:55.984Z,98712.34
2022-08-18T07:23:33.288Z,98706.84
2022-08-18T07:26:09.279Z,98718.31
2022-08-18T07:28:38.707Z,98706.78
2022-08-18T07:31:34.463Z,98706.34
2022-08-18T07:34:04.443Z,98711.91
2022-08-18T07:36:35.386Z,98713.09
2022-08-18T07:39:07.670Z,98713.13
2022-08-18T07:41:42.503Z,98713.50
2022-08-18T07:44:19.014Z,98711.88
2022-08-18T07:46:55.096Z,98714.63
2022-08-18T07:49:24.239Z,98722.94
2022-08-18T07:52:00.086Z,98722.56
2022-08-18T07:54:54.549Z,98719.78
2022-08-18T07:57:41.880Z,98722.50
2022-08-18T08:00:18.808Z,98729.19
2022-08-18T08:03:06.551Z,98726.78
2022-08-18T08:05:42.057Z,98734.25
2022-08-18T08:08:24.897Z,98729.47
2022-08-18T08:11:06.246Z,98734.56
2022-08-18T08:13:55.158Z,98735.38
2022-08-18T08:16:32.134Z,98744.06
2022-08-18T08:19:14.386Z,98742.50
2022-08-18T08:21:52.836Z,98733.00
2022-08-18T08:24:26.023Z,98735.75
2022-08-18T08:27:02.202Z,98750.75
2022-08-18T08:29:39.723Z,98757.38
2022-08-18T08:32:10.990Z,98750.63
2022-08-18T08:34:45.163Z,98769.28
2022-08-18T08:37:17.716Z,98771.66
2022-08-18T08:39:49.899Z,98787.91
2022-08-18T08:42:31.845Z,98786.69
2022-08-18T08:45:09.483Z,98797.72
2022-08-18T08:47:42.841Z,98790.63
2022-08-18T08:50:13.509Z,98802.41
2022-08-18T08:52:46.262Z,98811.91
2022-08-18T08:55:18.099Z,98813.88
2022-08-18T08:57:50.293Z,98816.69
2022-08-18T09:00:18.752Z,98821.06
2022-08-18T09:03:10.849Z,98821.47
2022-08-18T09:05:42.559Z,98816.72
2022-08-18T09:08:22.351Z,98821.50
2022-08-18T09:11:38.530Z,98817.22
2022-08-18T09:14:32.763Z,98831.06
2022-08-18T09:17:21.944Z,98833.41
2022-08-18T09:20:02.526Z,98831.81
2022-08-18T09:22:38.846Z,98829.06
2022-08-18T09:25:10.926Z,98820.34
2022-08-18T09:28:07.125Z,98819.94
2022-08-18T09:30:42.722Z,98825.84
2022-08-18T09:33:33.184Z,98822.66
2022-08-18T09:36:10.651Z,98818.31
2022-08-18T09:38:48.548Z,98823.41
2022-08-18T09:41:20.383Z,98809.59
2022-08-18T09:43:57.251Z,98822.69
2022-08-18T09:46:54.182Z,98825.06
2022-08-18T09:49:41.559Z,98836.88
2022-08-18T09:52:54.447Z,98828.22
2022-08-18T09:55:59.279Z,98829.81
2022-08-18T09:58:56.751Z,98827.81
2022-08-18T10:01:39.842Z,98823.53
2022-08-18T10:04:36.183Z,98811.63
2022-08-18T10:07:38.791Z,98800.56
2022-08-18T10:11:00.464Z,98801.34
2022-08-18T10:13:18.060Z,98803.28
2022-08-18T10:16:10.422Z,98796.59
2022-08-18T10:19:05.383Z,98792.97
2022-08-18T10:22:07.268Z,98790.13
2022-08-18T10:24:38.269Z,98780.56
2022-08-18T10:27:08.435Z,98784.47
2022-08-18T10:29:51.667Z,98783.28
2022-08-18T10:35:56.683Z,98774.69
2022-08-18T10:38:48.924Z,98763.16
2022-08-18T10:41:27.029Z,98770.91
2022-08-18T10:44:00.887Z,98759.41
2022-08-18T10:46:33.140Z,98768.31
2022-08-18T10:49:05.358Z,98764.97
2022-08-18T10:51:59.463Z,98755.81
2022-08-18T10:54:39.089Z,98755.03
2022-08-18T10:57:27.674Z,98745.13
2022-08-18T11:00:03.768Z,98746.41
2022-08-18T11:06:02.841Z,98744.00
2022-08-18T11:08:34.404Z,98734.38
2022-08-18T11:11:37.165Z,98742.75
2022-08-18T11:14:07.157Z,98742.47
2022-08-18T11:16:49.343Z,98739.78
2022-08-18T11:19:18.918Z,98744.00
2022-08-18T11:21:51.349Z,98739.72
2022-08-18T11:24:20.556Z,98739.38
2022-08-18T11:26:52.999Z,98743.91
2022-08-18T11:29:32.602Z,98745.19
2022-08-18T11:32:03.905Z,98735.63
2022-08-18T11:34:37.339Z,98744.19
2022-08-18T11:37:09.184Z,98735.56
2022-08-18T11:39:47.582Z,98735.13
2022-08-18T11:42:21.900Z,98734.25
2022-08-18T11:44:56.603Z,98729.63
2022-08-18T11:47:27.776Z,98724.66
2022-08-18T11:50:05.767Z,98719.28
2022-08-18T11:52:34.099Z,98726.69
2022-08-18T11:55:16.316Z,98729.09
2022-08-18T11:57:52.080Z,98730.03
2022-08-18T12:00:57.228Z,98730.09
2022-08-18T12:03:36.782Z,98725.53
2022-08-18T12:09:04.091Z,98711.19
2022-08-18T12:11:32.831Z,98717.97
2022-08-18T12:14:30.613Z,98718.69
2022-08-18T12:16:54.779Z,98723.66
2022-08-18T12:19:24.363Z,98721.09
2022-08-18T12:21:53.656Z,98726.75
2022-08-18T12:24:26.423Z,98726.63
2022-08-18T12:27:01.235Z,98736.88
2022-08-18T12:29:36.693Z,98734.97
2022-08-18T12:32:17.605Z,98734.66
2022-08-18T12:34:54.627Z,98722.41
2022-08-18T12:37:57.628Z,98726.34
2022-08-18T12:40:12.157Z,98721.06
2022-08-18T12:42:38.882Z,98707.38
2022-08-18T12:45:10.236Z,98707.13
2022-08-18T12:47:39.708Z,98695.44
2022-08-18T12:50:09.422Z,98689.91
2022-08-18T12:52:38.460Z,98700.94
2022-08-18T12:55:07.067Z,98700.63
2022-08-18T12:57:52.337Z,98705.22
2022-08-18T13:00:28.845Z,98713.56
2022-08-18T13:02:56.737Z,98704.63
2022-08-18T13:05:26.569Z,98705.84
2022-08-18T13:07:58.571Z,98700.16
2022-08-18T13:10:43.050Z,98709.50
2022-08-18T13:13:12.522Z,98698.97
2022-08-18T13:15:55.250Z,98695.88
2022-08-18T13:18:29.006Z,98702.13
2022-08-18T13:20:55.987Z,98697.94
2022-08-18T13:23:25.225Z,98686.72
2022-08-18T13:25:52.301Z,98675.53
2022-08-18T13:28:30.484Z,98674.66
2022-08-18T13:30:58.754Z,98669.19
2022-08-18T13:33:34.679Z,98657.28
2022-08-18T13:36:12.561Z,98655.72
2022-08-18T13:38:39.163Z,98648.25
2022-08-18T13:41:06.307Z,98645.22
2022-08-18T13:43:35.427Z,98644.34
2022-08-18T13:46:04.295Z,98641.84
2022-08-18T13:48:32.558Z,98657.28
2022-08-18T13:51:01.183Z,98658.41
2022-08-18T13:53:31.612Z,98641.94
2022-08-18T13:55:59.101Z,98649.00
2022-08-18T13:58:26.992Z,98643.16
2022-08-18T14:01:16.010Z,98644.06
2022-08-18T14:03:47.424Z,98648.66
2022-08-18T14:06:14.515Z,98637.84
2022-08-18T14:08:41.941Z,98635.31
2022-08-18T14:11:09.096Z,98634.09
2022-08-18T14:13:38.155Z,98633.47
2022-08-18T14:16:11.015Z,98631.38
2022-08-18T14:18:42.866Z,98650.88
2022-08-18T14:21:13.751Z,98659.66
2022-08-18T14:23:40.415Z,98663.34
2022-08-18T14:26:18.178Z,98656.09
2022-08-18T14:28:45.469Z,98654.38
2022-08-18T14:31:14.451Z,98644.00
2022-08-18T14:33:50.783Z,98653.56
2022-08-18T14:36:30.088Z,98653.47
2022-08-18T14:38:57.417Z,98642.75
2022-08-18T14:41:25.774Z,98640.59
2022-08-18T14:44:12.038Z,98640.00
2022-08-18T14:46:41.244Z,98640.53
2022-08-18T14:49:08.052Z,98643.88
2022-08-18T14:51:36.689Z,98640.84
2022-08-18T14:54:03.297Z,98639.03
2022-08-18T14:56:33.542Z,98633.97
2022-08-18T14:59:06.047Z,98637.19
2022-08-18T15:01:34.692Z,98633.72
2022-08-18T15:04:19.106Z,98630.59
2022-08-18T15:06:56.631Z,98631.72
2022-08-18T15:09:24.111Z,98628.22
2022-08-18T15:11:53.611Z,98630.16
2022-08-18T15:14:20.995Z,98622.66
2022-08-18T15:16:53.326Z,98624.66
2022-08-18T15:19:59.636Z,98630.19
2022-08-18T15:22:07.813Z,98628.88
2022-08-18T15:24:40.130Z,98634.75
2022-08-18T15:27:10.531Z,98629.03
2022-08-18T15:29:46.150Z,98629.81
2022-08-18T15:32:12.679Z,98636.22
2022-08-18T15:34:46.770Z,98638.72
2022-08-18T15:37:15.697Z,98634.47
2022-08-18T15:39:46.141Z,98636.72
2022-08-18T15:42:18.478Z,98634.16
2022-08-18T15:44:45.037Z,98635.31
2022-08-18T15:47:11.610Z,98640.59
2022-08-18T15:49:38.557Z,98638.75
2022-08-18T15:52:05.174Z,98641.53
2022-08-18T15:54:39.831Z,98639.31
2022-08-18T15:57:09.029Z,98642.81
2022-08-18T15:59:39.903Z,98642.47
2022-08-18T16:02:11.838Z,98648.53
2022-08-18T16:04:39.047Z,98661.00
2022-08-18T16:07:06.831Z,98652.75
2022-08-18T16:09:36.426Z,98651.97
2022-08-18T16:12:07.797Z,98652.88
2022-08-18T16:14:37.314Z,98646.59
2022-08-18T16:17:09.365Z,98642.66
2022-08-18T16:19:44.659Z,98641.09
2022-08-18T16:22:11.654Z,98638.47
2022-08-18T16:24:38.200Z,98635.19
2022-08-18T16:27:06.150Z,98632.22
2022-08-18T16:29:32.830Z,98630.13
2022-08-18T16:31:59.364Z,98628.34
2022-08-18T16:34:30.876Z,98639.53
2022-08-18T16:36:57.611Z,98636.13
2022-08-18T16:39:24.206Z,98635.34
2022-08-18T16:41:51.045Z,98639.31
2022-08-18T16:44:18.944Z,98637.75
2022-08-18T16:46:45.556Z,98640.66
2022-08-18T16:49:12.155Z,98645.06
2022-08-18T16:51:38.745Z,98645.25
2022-08-18T16:54:05.334Z,98647.75
2022-08-18T16:56:32.223Z,98643.91
2022-08-18T16:58:58.815Z,98661.16
2022-08-18T17:01:26.850Z,98645.00
2022-08-18T17:04:00.358Z,98634.75
2022-08-18T17:06:27.270Z,98629.72
2022-08-18T17:08:54.817Z,98623.44
2022-08-18T17:11:21.830Z,98619.03
2022-08-18T17:13:50.506Z,98618.34
2022-08-18T17:16:18.678Z,98606.09
2022-08-18T17:18:46.791Z,98605.75
2022-08-18T17:21:16.967Z,98605.88
2022-08-18T17:23:44.502Z,98599.72
2022-08-18T17:26:20.222Z,98615.16
2022-08-18T17:28:52.625Z,98626.84
2022-08-18T17:31:21.195Z,98624.47
2022-08-18T17:33:49.090Z,98630.44
2022-08-18T17:36:21.642Z,98630.25
2022-08-18T17:38:53.734Z,98631.50
2022-08-18T17:41:21.001Z,98637.44
2022-08-18T17:43:47.714Z,98645.19
2022-08-18T17:46:18.650Z,98638.84
2022-08-18T17:48:49.468Z,98649.56
2022-08-18T17:51:26.720Z,98652.03
2022-08-18T17:53:53.668Z,98649.38
2022-08-18T17:56:24.076Z,98648.16
2022-08-18T17:59:45.714Z,98649.06
2022-08-18T18:02:28.383Z,98651.19
2022-08-18T18:04:57.743Z,98664.28
2022-08-18T18:07:27.842Z,98664.69
2022-08-18T18:09:57.383Z,98658.03
2022-08-18T18:12:26.184Z,98664.75
2022-08-18T18:14:52.777Z,98667.94
2022-08-18T18:17:23.775Z,98665.19
2022-08-18T18:19:54.631Z,98658.91
2022-08-18T18:22:23.142Z,98665.66
2022-08-18T18:24:53.697Z,98669.22
2022-08-18T18:27:30.242Z,98668.06
2022-08-18T18:30:01.209Z,98674.84
2022-08-18T18:32:30.680Z,98670.56
2022-08-18T18:35:14.660Z,98672.88
2022-08-18T18:37:47.653Z,98670.16
2022-08-18T18:40:38.403Z,98664.66
2022-08-18T18:43:24.423Z,98664.72
2022-08-18T18:46:19.278Z,98669.13
2022-08-18T18:48:54.613Z,98679.44
2022-08-18T18:51:33.275Z,98675.53
2022-08-18T18:54:09.514Z,98671.19
2022-08-18T18:56:43.031Z,98672.00
2022-08-18T18:59:22.258Z,98675.56
2022-08-18T19:01:59.616Z,98676.81
2022-08-18T19:04:32.498Z,98674.06
2022-08-18T19:07:07.311Z,98672.06
2022-08-18T19:09:39.656Z,98672.91
2022-08-18T19:12:16.046Z,98669.75
2022-08-18T19:14:59.635Z,98658.72
2022-08-18T19:17:37.522Z,98657.94
2022-08-18T19:20:08.709Z,98660.38
2022-08-18T19:22:42.062Z,98658.00
2022-08-18T19:25:17.891Z,98661.56
2022-08-18T19:27:50.644Z,98655.69
2022-08-18T19:30:19.478Z,98656.50
2022-08-18T19:32:49.359Z,98653.75
2022-08-18T19:35:21.755Z,98657.28
2022-08-18T19:38:01.927Z,98651.78
2022-08-18T19:40:39.236Z,98650.63
2022-08-18T19:43:12.291Z,98652.59
2022-08-18T19:45:46.438Z,98662.06
2022-08-18T19:48:18.614Z,98669.63
2022-08-18T19:50:51.103Z,98662.91
2022-08-18T19:53:44.184Z,98669.63
2022-08-18T19:56:27.217Z,98676.78
2022-08-18T19:59:18.567Z,98676.38
2022-08-18T20:01:59.895Z,98679.19
2022-08-18T20:04:47.331Z,98676.03
2022-08-18T20:07:49.890Z,98685.50
2022-08-18T20:10:31.512Z,98674.44
2022-08-18T20:13:14.755Z,98672.47
2022-08-18T20:15:59.966Z,98676.03
2022-08-18T20:18:30.970Z,98663.44
2022-08-18T20:21:22.838Z,98660.69
2022-08-18T20:23:59.382Z,98660.28
2022-08-18T20:26:46.129Z,98657.56
2022-08-18T20:29:15.102Z,98651.25
2022-08-18T20:31:57.908Z,98646.91
2022-08-18T20:34:27.277Z,98650.47
2022-08-18T20:36:56.001Z,98651.28
2022-08-18T20:39:42.550Z,98650.09
2022-08-18T20:43:06.531Z,98646.59
2022-08-18T20:45:36.014Z,98645.03
2022-08-18T20:48:27.678Z,98644.66
2022-08-18T20:51:02.141Z,98639.16
2022-08-18T20:53:50.129Z,98639.53
2022-08-18T20:56:32.165Z,98635.63
2022-08-18T20:59:08.840Z,98636.03
2022-08-18T21:01:37.154Z,98624.22
2022-08-18T21:04:07.083Z,98624.25
2022-08-18T21:06:38.007Z,98625.81
2022-08-18T21:09:05.076Z,98623.84
2022-08-18T21:11:39.121Z,98614.78
2022-08-18T21:14:06.199Z,98610.84
2022-08-18T21:16:38.823Z,98603.72
2022-08-18T21:19:17.077Z,98614.41
2022-08-18T21:21:47.154Z,98610.44
2022-08-18T21:24:27.577Z,98619.91
2022-08-18T21:26:56.339Z,98618.72
2022-08-18T21:29:23.099Z,98626.59
2022-08-18T21:31:49.613Z,98628.56
2022-08-18T21:34:31.711Z,98621.88
2022-08-18T21:37:00.688Z,98624.22
2022-08-18T21:39:27.312Z,98622.22
2022-08-18T21:41:56.631Z,98621.84
2022-08-18T21:44:25.523Z,98625.38
2022-08-18T21:47:03.846Z,98628.13
2022-08-18T21:49:31.833Z,98643.47
2022-08-18T21:51:58.367Z,98640.69
2022-08-18T21:54:29.905Z,98648.16
2022-08-18T21:57:18.406Z,98648.16
2022-08-18T22:00:13.181Z,98659.13
2022-08-18T22:02:39.950Z,98669.31
2022-08-18T22:05:09.614Z,98660.69
2022-08-18T22:07:36.547Z,98665.38
2022-08-18T22:10:07.460Z,98675.19
2022-08-18T22:12:36.418Z,98677.53
2022-08-18T22:15:06.784Z,98674.38
2022-08-18T22:17:42.527Z,98676.34
2022-08-18T22:20:42.389Z,98688.50
2022-08-18T22:23:26.178Z,98691.66
2022-08-18T22:25:52.794Z,98699.91
2022-08-18T22:28:22.908Z,98697.16
2022-08-18T22:30:49.497Z,98698.75
2022-08-18T22:33:16.126Z,98703.47
2022-08-18T22:35:52.361Z,98699.19
2022-08-18T22:38:19.070Z,98709.41
2022-08-18T22:40:45.635Z,98709.81
2022-08-18T22:43:12.169Z,98711.34
2022-08-18T22:45:38.747Z,98705.47
2022-08-18T22:48:05.649Z,98699.97
2022-08-18T22:50:32.215Z,98703.50
2022-08-18T22:53:00.122Z,98696.81
2022-08-18T22:55:26.653Z,98684.25
2022-08-18T22:57:57.010Z,98692.13
2022-08-18T23:00:25.196Z,98683.84
2022-08-18T23:02:52.537Z,98680.31
2022-08-18T23:05:19.318Z,98684.25
2022-08-18T23:07:46.011Z,98676.75
2022-08-18T23:10:14.509Z,98669.69
2022-08-18T23:12:41.297Z,98662.19
2022-08-18T23:15:08.559Z,98654.69
2022-08-18T23:17:35.322Z,98655.84
2022-08-18T23:20:01.863Z,98657.38
2022-08-18T23:22:28.375Z,98673.13
2022-08-18T23:24:54.874Z,98669.16
2022-08-18T23:27:22.770Z,98674.25
2022-08-18T23:29:50.836Z,98680.13
2022-08-18T23:32:17.577Z,98683.69
2022-08-18T23:34:44.182Z,98684.03
2022-08-18T23:37:10.729Z,98686.78
2022-08-18T23:39:37.656Z,98686.03
2022-08-18T23:42:07.171Z,98688.38
2022-08-18T23:44:35.152Z,98689.97
2022-08-18T23:47:01.714Z,98693.13
2022-08-18T23:49:29.702Z,98684.13
2022-08-18T23:51:57.535Z,98675.09
2022-08-18T23:54:26.022Z,98679.03
2022-08-18T23:56:52.806Z,98674.69
2022-08-18T23:59:22.083Z,98673.53
